Time;durP1;ratioP1;P1;durP2;ratioP2;P2;SDS_P1;SDS_P2;PMS_P1;PMS_P2;Temp;Humidity;BMP_temperature;BMP_pressure;BME280_temperature;BME280_humidity;BME280_pressure;Samples;Min_cycle;Max_cycle;Signal;HPM_P1;HPM_P2
2023/03/29 00:00:30;;;;;;;4.68;1.48;;;;;;;;;;5054284;28;20847;-63
2023/03/29 00:02:56;;;;;;;2.70;1.67;;;;;;;;;;5054777;28;20036;-64
2023/03/29 00:05:24;;;;;;;3.22;1.58;;;;;;;;;;5054911;28;20036;-62
2023/03/29 00:07:52;;;;;;;3.28;1.52;;;;;;;;;;5054653;28;20021;-63
2023/03/29 00:10:19;;;;;;;3.70;1.80;;;;;;;;;;5054595;28;20028;-63
2023/03/29 00:12:46;;;;;;;3.20;1.38;;;;;;;;;;5053276;28;20039;-63
2023/03/29 00:15:12;;;;;;;2.17;1.40;;;;;;;;;;5054302;28;20027;-63
2023/03/29 00:17:39;;;;;;;4.72;1.70;;;;;;;;;;5054305;28;20095;-64
2023/03/29 00:20:08;;;;;;;4.18;1.50;;;;;;;;;;5054615;28;20488;-63
2023/03/29 00:22:40;;;;;;;3.42;1.50;;;;;;;;;;5054440;28;20025;-63
2023/03/29 00:25:07;;;;;;;3.38;1.55;;;;;;;;;;5054156;28;20025;-63
2023/03/29 00:27:34;;;;;;;3.13;1.58;;;;;;;;;;5053994;28;20508;-63
2023/03/29 00:30:03;;;;;;;2.45;1.38;;;;;;;;;;5054388;28;20057;-63
2023/03/29 00:32:29;;;;;;;3.67;1.30;;;;;;;;;;5054088;28;20493;-63
2023/03/29 00:34:56;;;;;;;3.47;1.52;;;;;;;;;;5054291;28;20035;-63
2023/03/29 00:37:25;;;;;;;3.33;1.55;;;;;;;;;;5054411;28;20032;-63
2023/03/29 00:39:52;;;;;;;4.72;1.60;;;;;;;;;;5054282;28;20027;-63
2023/03/29 00:42:19;;;;;;;2.95;1.42;;;;;;;;;;5052593;28;20025;-63
2023/03/29 00:44:57;;;;;;;6.63;1.73;;;;;;;;;;5054300;28;20021;-63
2023/03/29 00:47:36;;;;;;;5.25;1.92;;;;;;;;;;5054062;28;20021;-63
2023/03/29 00:50:25;;;;;;;5.25;1.50;;;;;;;;;;5053239;28;20044;-63
2023/03/29 00:53:06;;;;;;;2.35;1.40;;;;;;;;;;5053552;28;20039;-63
2023/03/29 00:55:35;;;;;;;5.90;1.40;;;;;;;;;;5053840;28;20028;-63
2023/03/29 00:58:04;;;;;;;3.38;1.40;;;;;;;;;;5052587;28;20041;-63
2023/03/29 01:00:33;;;;;;;2.88;1.50;;;;;;;;;;5053487;28;20033;-63
2023/03/29 01:03:01;;;;;;;4.85;1.55;;;;;;;;;;5053647;28;20017;-63
2023/03/29 01:05:39;;;;;;;2.30;1.30;;;;;;;;;;5053954;28;20021;-64
2023/03/29 01:08:07;;;;;;;2.92;1.55;;;;;;;;;;5053786;28;20027;-63
2023/03/29 01:10:40;;;;;;;3.03;1.60;;;;;;;;;;5053584;28;20404;-63
2023/03/29 01:13:08;;;;;;;4.82;1.50;;;;;;;;;;5053642;28;20029;-63
2023/03/29 01:15:35;;;;;;;4.25;1.70;;;;;;;;;;5053287;28;20482;-63
2023/03/29 01:18:01;;;;;;;4.57;1.60;;;;;;;;;;5053279;28;20036;-62
2023/03/29 01:20:43;;;;;;;3.55;1.70;;;;;;;;;;5052079;28;20029;-64
2023/03/29 01:23:31;;;;;;;2.92;1.52;;;;;;;;;;5033280;28;20389;-64
2023/03/29 01:26:20;;;;;;;3.88;1.63;;;;;;;;;;5033312;28;20023;-63
2023/03/29 01:28:52;;;;;;;4.22;1.60;;;;;;;;;;5030912;28;20041;-63
2023/03/29 01:31:38;;;;;;;3.50;1.42;;;;;;;;;;5030836;28;20063;-63
2023/03/29 01:34:13;;;;;;;3.03;1.80;;;;;;;;;;5031046;28;20521;-63
2023/03/29 01:36:44;;;;;;;2.92;1.60;;;;;;;;;;5030824;28;20033;-63
2023/03/29 01:39:10;;;;;;;;;;;;;;;;;;5031317;28;20037;-63
2023/03/29 01:41:39;;;;;;;2.78;1.33;;;;;;;;;;5030883;28;19905;-64
2023/03/29 01:44:09;;;;;;;5.15;1.50;;;;;;;;;;5030785;28;20087;-63
2023/03/29 01:46:35;;;;;;;5.18;1.52;;;;;;;;;;5030967;28;20032;-63
2023/03/29 01:49:05;;;;;;;2.25;1.33;;;;;;;;;;5030503;28;20029;-63
2023/03/29 01:51:36;;;;;;;4.13;1.52;;;;;;;;;;5030541;28;20030;-63
2023/03/29 01:54:23;;;;;;;4.22;1.73;;;;;;;;;;5030684;28;20041;-63
2023/03/29 01:56:50;;;;;;;4.05;1.35;;;;;;;;;;5030739;28;20034;-62
2023/03/29 01:59:21;;;;;;;2.75;1.40;;;;;;;;;;5036477;28;20032;-63
2023/03/29 02:01:52;;;;;;;2.83;1.30;;;;;;;;;;5049647;28;20050;-62
2023/03/29 02:04:21;;;;;;;2.67;1.42;;;;;;;;;;5050480;28;20051;-63
2023/03/29 02:06:49;;;;;;;4.90;1.10;;;;;;;;;;5033764;28;20045;-63
2023/03/29 02:09:16;;;;;;;4.32;1.45;;;;;;;;;;5032133;28;20038;-63
2023/03/29 02:11:44;;;;;;;1.80;1.50;;;;;;;;;;5032340;28;20500;-63
2023/03/29 02:14:10;;;;;;;4.55;1.67;;;;;;;;;;5032606;28;20025;-63
2023/03/29 02:16:37;;;;;;;4.68;1.40;;;;;;;;;;5032572;28;20036;-63
2023/03/29 02:19:06;;;;;;;2.58;1.50;;;;;;;;;;5032657;28;20017;-63
2023/03/29 02:21:53;;;;;;;2.65;1.30;;;;;;;;;;5032275;28;20025;-63
2023/03/29 02:24:21;;;;;;;2.78;1.40;;;;;;;;;;5032077;28;20025;-63
2023/03/29 02:26:48;;;;;;;4.35;1.10;;;;;;;;;;5032431;28;20032;-63
2023/03/29 02:29:14;;;;;;;1.92;1.30;;;;;;;;;;5032035;28;20095;-63
2023/03/29 02:31:43;;;;;;;3.75;1.55;;;;;;;;;;5032116;28;20436;-63
2023/03/29 02:34:19;;;;;;;2.85;1.38;;;;;;;;;;5032045;28;20381;-63
2023/03/29 02:36:49;;;;;;;5.80;1.50;;;;;;;;;;5032402;28;20034;-63
2023/03/29 02:39:16;;;;;;;4.20;1.33;;;;;;;;;;5031795;28;20029;-63
2023/03/29 02:41:45;;;;;;;5.20;1.67;;;;;;;;;;5032050;28;20036;-63
2023/03/29 02:44:13;;;;;;;2.90;1.40;;;;;;;;;;5031953;28;20036;-63
2023/03/29 02:46:42;;;;;;;5.30;1.48;;;;;;;;;;5031943;28;20036;-63
2023/03/29 02:49:09;;;;;;;6.35;1.35;;;;;;;;;;5032115;28;20299;-64
2023/03/29 02:51:36;;;;;;;2.85;1.27;;;;;;;;;;5031907;28;20025;-63
2023/03/29 02:54:12;;;;;;;3.97;1.58;;;;;;;;;;5032149;28;20014;-63
2023/03/29 02:56:43;;;;;;;3.50;1.63;;;;;;;;;;5032256;28;20026;-63
2023/03/29 02:59:11;;;;;;;5.93;1.50;;;;;;;;;;5037090;28;20027;-63
2023/03/29 03:01:38;;;;;;;5.13;1.40;;;;;;;;;;5051681;28;20094;-63
2023/03/29 03:04:05;;;;;;;3.33;1.50;;;;;;;;;;5051876;28;20022;-63
2023/03/29 03:06:31;;;;;;;2.60;1.73;;;;;;;;;;5051791;28;20040;-63
2023/03/29 03:08:57;;;;;;;4.63;2.22;;;;;;;;;;5051397;28;20021;-63
2023/03/29 03:11:24;;;;;;;4.55;1.77;;;;;;;;;;5051915;28;20041;-63
2023/03/29 03:13:50;;;;;;;1.90;1.23;;;;;;;;;;5053234;28;20027;-63
2023/03/29 03:16:16;;;;;;;6.25;1.20;;;;;;;;;;5055589;28;20039;-63
2023/03/29 03:18:44;;;;;;;3.63;1.40;;;;;;;;;;5055946;28;20033;-63
2023/03/29 03:21:11;;;;;;;3.25;1.50;;;;;;;;;;5055498;28;20025;-63
2023/03/29 03:23:37;;;;;;;4.95;1.50;;;;;;;;;;5055365;28;20013;-62
2023/03/29 03:26:03;;;;;;;1.98;1.20;;;;;;;;;;5055435;28;20052;-63
2023/03/29 03:28:31;;;;;;;3.13;1.40;;;;;;;;;;5055220;28;20051;-63
2023/03/29 03:30:57;;;;;;;1.45;1.33;;;;;;;;;;5055283;28;20043;-63
2023/03/29 03:33:25;;;;;;;2.58;1.25;;;;;;;;;;5087725;28;20033;-63
2023/03/29 03:35:55;;;;;;;5.18;1.70;;;;;;;;;;5054886;28;20527;-63
2023/03/29 03:38:22;;;;;;;2.35;1.33;;;;;;;;;;5055411;28;20021;-63
2023/03/29 03:40:55;;;;;;;6.40;1.58;;;;;;;;;;5055315;28;20017;-63
2023/03/29 03:43:22;;;;;;;8.38;1.70;;;;;;;;;;5054092;28;20025;-63
2023/03/29 03:45:49;;;;;;;4.10;1.50;;;;;;;;;;5055048;28;20025;-63
2023/03/29 03:48:16;;;;;;;4.25;2.00;;;;;;;;;;5055018;28;20401;-63
2023/03/29 03:50:47;;;;;;;2.50;1.65;;;;;;;;;;5054763;28;20044;-63
2023/03/29 03:53:14;;;;;;;5.55;1.88;;;;;;;;;;5055005;28;20099;-63
2023/03/29 03:55:40;;;;;;;3.85;1.80;;;;;;;;;;5054813;28;20025;-63
2023/03/29 03:58:06;;;;;;;3.95;1.40;;;;;;;;;;5054891;28;20031;-62
2023/03/29 04:00:33;;;;;;;5.15;1.42;;;;;;;;;;5055294;28;20388;-62
2023/03/29 04:03:01;;;;;;;2.92;1.20;;;;;;;;;;5054660;28;20032;-63
2023/03/29 04:05:27;;;;;;;6.50;1.40;;;;;;;;;;5054631;28;20021;-62
2023/03/29 04:07:54;;;;;;;4.63;1.60;;;;;;;;;;5054881;28;20055;-63
2023/03/29 04:10:21;;;;;;;3.92;1.40;;;;;;;;;;5054585;28;20033;-63
2023/03/29 04:12:47;;;;;;;3.78;1.30;;;;;;;;;;5053784;28;20029;-63
2023/03/29 04:15:16;;;;;;;5.13;1.63;;;;;;;;;;5054548;28;20029;-63
2023/03/29 04:17:43;;;;;;;2.33;1.35;;;;;;;;;;5054761;28;20017;-63
2023/03/29 04:20:13;;;;;;;2.90;1.48;;;;;;;;;;5054177;28;20024;-63
2023/03/29 04:22:40;;;;;;;5.55;1.60;;;;;;;;;;5054715;28;20029;-63
2023/03/29 04:25:07;;;;;;;5.45;1.50;;;;;;;;;;5053642;28;20017;-63
2023/03/29 04:27:38;;;;;;;4.13;1.52;;;;;;;;;;5052950;28;20505;-63
2023/03/29 04:30:06;;;;;;;2.97;1.73;;;;;;;;;;5054160;28;20057;-63
2023/03/29 04:32:32;;;;;;;5.00;1.92;;;;;;;;;;5054161;28;20025;-63
2023/03/29 04:34:59;;;;;;;6.22;2.25;;;;;;;;;;5053920;28;20025;-63
2023/03/29 04:37:26;;;;;;;4.95;1.90;;;;;;;;;;5054137;28;20416;-63
2023/03/29 04:39:53;;;;;;;4.28;1.90;;;;;;;;;;5053936;28;20028;-63
2023/03/29 04:42:19;;;;;;;4.07;1.67;;;;;;;;;;5053866;28;20021;-63
2023/03/29 04:44:46;;;;;;;4.35;1.75;;;;;;;;;;5054049;28;20040;-63
2023/03/29 04:47:12;;;;;;;5.03;1.70;;;;;;;;;;5053813;28;20432;-63
2023/03/29 04:49:39;;;;;;;4.50;2.00;;;;;;;;;;5052589;28;20047;-63
2023/03/29 04:52:05;;;;;;;5.38;2.05;;;;;;;;;;5053917;28;20466;-63
2023/03/29 04:54:32;;;;;;;7.55;2.30;;;;;;;;;;5053958;28;20033;-63
2023/03/29 04:56:58;;;;;;;4.47;1.95;;;;;;;;;;5053641;28;20284;-63
2023/03/29 04:59:24;;;;;;;3.40;2.20;;;;;;;;;;5053702;28;20029;-63
2023/03/29 05:01:51;;;;;;;3.92;1.90;;;;;;;;;;5053800;28;20025;-64
2023/03/29 05:04:17;;;;;;;11.60;2.13;;;;;;;;;;5053586;28;20027;-63
2023/03/29 05:06:43;;;;;;;4.57;2.08;;;;;;;;;;5053780;28;20066;-63
2023/03/29 05:09:10;;;;;;;6.35;1.77;;;;;;;;;;5053328;28;20032;-64
2023/03/29 05:11:37;;;;;;;6.85;1.65;;;;;;;;;;5052213;28;20033;-63
2023/03/29 05:14:06;;;;;;;5.32;2.20;;;;;;;;;;5053482;28;20017;-63
2023/03/29 05:16:33;;;;;;;5.85;2.10;;;;;;;;;;5053265;28;20515;-63
2023/03/29 05:19:00;;;;;;;3.40;1.65;;;;;;;;;;5053339;28;20017;-62
2023/03/29 05:21:29;;;;;;;3.00;1.40;;;;;;;;;;5053354;28;20020;-63
2023/03/29 05:23:56;;;;;;;3.78;1.88;;;;;;;;;;5053578;28;20025;-63
2023/03/29 05:26:22;;;;;;;3.92;2.00;;;;;;;;;;5053016;28;20510;-63
2023/03/29 05:28:49;;;;;;;5.75;1.30;;;;;;;;;;5053173;28;20052;-63
2023/03/29 05:31:16;;;;;;;4.00;1.40;;;;;;;;;;5053315;28;20498;-63
2023/03/29 05:33:42;;;;;;;4.32;1.58;;;;;;;;;;5052658;28;20029;-63
2023/03/29 05:36:12;;;;;;;3.30;1.55;;;;;;;;;;5053185;28;20032;-63
2023/03/29 05:38:39;;;;;;;4.35;1.65;;;;;;;;;;5053189;28;20016;-63
2023/03/29 05:41:05;;;;;;;3.50;1.63;;;;;;;;;;5052974;28;20029;-63
2023/03/29 05:43:32;;;;;;;3.83;1.63;;;;;;;;;;5052820;28;20029;-63
2023/03/29 05:45:58;;;;;;;4.60;1.40;;;;;;;;;;5052888;28;20484;-63
2023/03/29 05:48:26;;;;;;;3.42;1.80;;;;;;;;;;5052654;28;20027;-63
2023/03/29 05:50:53;;;;;;;7.38;1.80;;;;;;;;;;5051459;28;20406;-63
2023/03/29 05:53:21;;;;;;;3.50;1.70;;;;;;;;;;5052833;28;20021;-63
2023/03/29 05:55:47;;;;;;;2.47;1.60;;;;;;;;;;5052991;28;20028;-63
2023/03/29 05:58:14;;;;;;;9.57;2.17;;;;;;;;;;5052806;28;20025;-63
2023/03/29 06:00:41;;;;;;;6.32;1.98;;;;;;;;;;5052576;28;20032;-63
2023/03/29 06:03:16;;;;;;;4.68;1.83;;;;;;;;;;5052125;28;20386;-63
2023/03/29 06:05:42;;;;;;;4.53;2.00;;;;;;;;;;5052528;28;20074;-63
2023/03/29 06:08:10;;;;;;;3.70;1.70;;;;;;;;;;5052470;28;20031;-63
2023/03/29 06:10:36;;;;;;;8.82;1.80;;;;;;;;;;5052204;28;20031;-64
2023/03/29 06:13:04;;;;;;;7.72;1.73;;;;;;;;;;5052610;28;20032;-63
2023/03/29 06:15:31;;;;;;;3.70;1.25;;;;;;;;;;5052045;28;20467;-65
2023/03/29 06:17:58;;;;;;;2.95;1.55;;;;;;;;;;5047129;28;20029;-62
2023/03/29 06:20:25;;;;;;;5.45;2.10;;;;;;;;;;5051326;28;20025;-63
2023/03/29 06:22:51;;;;;;;11.27;2.35;;;;;;;;;;5050803;28;20028;-63
2023/03/29 06:25:18;;;;;;;5.05;2.00;;;;;;;;;;5051833;28;20036;-63
2023/03/29 06:27:47;;;;;;;7.32;1.92;;;;;;;;;;5050128;28;20013;-64
2023/03/29 06:30:14;;;;;;;4.65;2.40;;;;;;;;;;5050340;28;20044;-63
2023/03/29 06:32:45;;;;;;;5.35;1.90;;;;;;;;;;5050822;28;20017;-63
2023/03/29 06:35:11;;;;;;;5.78;2.10;;;;;;;;;;5050749;28;20032;-63
2023/03/29 06:37:39;;;;;;;5.60;2.50;;;;;;;;;;5050534;28;20025;-64
2023/03/29 06:40:08;;;;;;;4.10;2.67;;;;;;;;;;5050863;28;20029;-63
2023/03/29 06:42:34;;;;;;;7.00;2.88;;;;;;;;;;5049795;28;20040;-63
2023/03/29 06:45:01;;;;;;;7.47;2.95;;;;;;;;;;5050572;28;20025;-61
2023/03/29 06:47:29;;;;;;;5.95;3.17;;;;;;;;;;5050211;28;20021;-63
2023/03/29 06:49:56;;;;;;;6.25;2.65;;;;;;;;;;5050377;28;20039;-63
2023/03/29 06:52:22;;;;;;;5.07;2.78;;;;;;;;;;5050250;28;20029;-64
2023/03/29 06:54:49;;;;;;;6.45;2.42;;;;;;;;;;5050562;28;20029;-63
2023/03/29 06:57:15;;;;;;;4.53;1.95;;;;;;;;;;5050245;28;20078;-63
2023/03/29 06:59:42;;;;;;;5.07;2.13;;;;;;;;;;5050152;28;20051;-63
2023/03/29 07:02:11;;;;;;;5.18;4.05;;;;;;;;;;5051590;28;20029;-64
2023/03/29 07:04:37;;;;;;;6.03;3.97;;;;;;;;;;5065360;28;20025;-64
2023/03/29 07:07:06;;;;;;;6.45;3.30;;;;;;;;;;5070200;28;20044;-64
2023/03/29 07:09:34;;;;;;;6.75;2.58;;;;;;;;;;5070262;28;20016;-64
2023/03/29 07:12:01;;;;;;;6.18;2.53;;;;;;;;;;5069680;28;20028;-63
2023/03/29 07:14:28;;;;;;;5.88;2.50;;;;;;;;;;5070012;28;20024;-63
2023/03/29 07:16:57;;;;;;;5.72;3.13;;;;;;;;;;5051385;28;20531;-64
2023/03/29 07:19:26;;;;;;;5.43;2.65;;;;;;;;;;5050243;28;20039;-64
2023/03/29 07:21:53;;;;;;;5.60;2.25;;;;;;;;;;5049889;28;20063;-62
2023/03/29 07:24:20;;;;;;;3.25;2.40;;;;;;;;;;5050216;28;20474;-61
2023/03/29 07:26:47;;;;;;;9.27;2.80;;;;;;;;;;5050426;28;20035;-61
2023/03/29 07:29:14;;;;;;;5.80;3.22;;;;;;;;;;5049963;28;20049;-63
2023/03/29 07:31:42;;;;;;;4.95;3.40;;;;;;;;;;5049747;28;20059;-63
2023/03/29 07:34:11;;;;;;;5.50;2.00;;;;;;;;;;5049241;28;20024;-63
2023/03/29 07:36:38;;;;;;;6.68;2.05;;;;;;;;;;5050210;28;20063;-62
2023/03/29 07:39:05;;;;;;;5.40;2.00;;;;;;;;;;5049885;28;20025;-64
2023/03/29 07:41:32;;;;;;;3.22;2.00;;;;;;;;;;5050046;28;20033;-64
2023/03/29 07:44:03;;;;;;;3.22;1.83;;;;;;;;;;5050111;28;20032;-63
2023/03/29 07:46:30;;;;;;;5.97;2.00;;;;;;;;;;5049749;28;20055;-62
2023/03/29 07:48:56;;;;;;;3.55;1.90;;;;;;;;;;5048295;28;20025;-63
2023/03/29 07:51:23;;;;;;;7.03;1.92;;;;;;;;;;5050016;28;20033;-63
2023/03/29 07:53:49;;;;;;;8.50;1.92;;;;;;;;;;5049961;28;20035;-63
2023/03/29 07:56:16;;;;;;;9.80;2.13;;;;;;;;;;5049377;28;20025;-64
2023/03/29 07:58:42;;;;;;;8.35;2.00;;;;;;;;;;5049617;28;20021;-64
2023/03/29 08:01:09;;;;;;;5.47;1.95;;;;;;;;;;5051860;28;20025;-64
2023/03/29 08:03:36;;;;;;;11.02;2.53;;;;;;;;;;5053265;28;20404;-64
2023/03/29 08:06:02;;;;;;;7.22;1.92;;;;;;;;;;5055232;28;20028;-64
2023/03/29 08:08:28;;;;;;;15.55;3.08;;;;;;;;;;5053552;28;20086;-64
2023/03/29 08:10:55;;;;;;;28.08;3.47;;;;;;;;;;5053167;28;20037;-64
2023/03/29 08:13:22;;;;;;;6.45;2.67;;;;;;;;;;5053259;28;20031;-64
2023/03/29 08:15:49;;;;;;;2.90;2.15;;;;;;;;;;5052970;28;20031;-64
2023/03/29 08:18:16;;;;;;;5.45;2.10;;;;;;;;;;5047266;28;20017;-64
2023/03/29 08:20:42;;;;;;;7.90;2.65;;;;;;;;;;5052553;28;20061;-61
2023/03/29 08:23:08;;;;;;;6.70;2.75;;;;;;;;;;5053260;28;20025;-62
2023/03/29 08:25:35;;;;;;;5.15;2.78;;;;;;;;;;5052611;28;20043;-64
2023/03/29 08:28:01;;;;;;;4.97;2.47;;;;;;;;;;5052532;28;20021;-62
2023/03/29 08:30:28;;;;;;;7.75;3.55;;;;;;;;;;5051652;28;20524;-64
2023/03/29 08:32:54;;;;;;;5.05;2.67;;;;;;;;;;5052808;28;20013;-64
2023/03/29 08:35:21;;;;;;;4.45;2.05;;;;;;;;;;5052875;28;20052;-62
2023/03/29 08:37:47;;;;;;;7.57;2.13;;;;;;;;;;5052681;28;20496;-64
2023/03/29 08:40:20;;;;;;;3.45;2.03;;;;;;;;;;5052866;28;20032;-65
2023/03/29 08:42:52;;;;;;;10.50;2.13;;;;;;;;;;5052921;28;20017;-65
2023/03/29 08:45:28;;;;;;;8.13;2.13;;;;;;;;;;5052758;28;20086;-64
2023/03/29 08:47:57;;;;;;;2.97;1.75;;;;;;;;;;5052641;28;20025;-64
2023/03/29 08:50:26;;;;;;;4.40;1.60;;;;;;;;;;5052517;28;20049;-64
2023/03/29 08:52:55;;;;;;;3.97;1.92;;;;;;;;;;5052335;28;20478;-64
2023/03/29 08:55:27;;;;;;;5.45;1.90;;;;;;;;;;5052194;28;20043;-64
2023/03/29 08:57:54;;;;;;;10.57;1.85;;;;;;;;;;5052200;28;20027;-62
2023/03/29 09:00:24;;;;;;;3.20;1.90;;;;;;;;;;5051765;28;20040;-64
2023/03/29 09:02:52;;;;;;;5.03;2.00;;;;;;;;;;5052518;28;20074;-64
2023/03/29 09:05:19;;;;;;;9.40;2.05;;;;;;;;;;5052281;28;20032;-64
2023/03/29 09:07:45;;;;;;;9.40;1.98;;;;;;;;;;5051039;28;20028;-65
2023/03/29 09:10:16;;;;;;;6.32;2.00;;;;;;;;;;5051547;28;20106;-64
2023/03/29 09:12:48;;;;;;;4.20;1.83;;;;;;;;;;5051899;28;20029;-64
2023/03/29 09:15:39;;;;;;;7.82;2.30;;;;;;;;;;5052055;28;20029;-64
2023/03/29 09:18:18;;;;;;;6.55;2.17;;;;;;;;;;5052100;28;20040;-63
2023/03/29 09:20:53;;;;;;;9.60;2.13;;;;;;;;;;5051817;28;20043;-64
2023/03/29 09:23:40;;;;;;;9.75;2.47;;;;;;;;;;5049038;28;20025;-64
2023/03/29 09:26:21;;;;;;;9.68;3.63;;;;;;;;;;5050859;28;20033;-62
2023/03/29 09:31:56;;;;;;;7.50;1.67;;;;;;;;;;5048787;28;20041;-65
2023/03/29 09:34:25;;;;;;;5.95;1.60;;;;;;;;;;5049123;28;20033;-64
2023/03/29 09:36:57;;;;;;;2.97;1.45;;;;;;;;;;5053134;28;20035;-64
2023/03/29 09:39:26;;;;;;;7.15;1.90;;;;;;;;;;5068998;28;20021;-65
2023/03/29 09:41:53;;;;;;;5.22;1.75;;;;;;;;;;5057872;28;20036;-63
2023/03/29 09:44:21;;;;;;;2.75;1.50;;;;;;;;;;5048993;28;20082;-65
2023/03/29 09:46:55;;;;;;;2.42;1.40;;;;;;;;;;5045697;28;20110;-64
2023/03/29 09:49:24;;;;;;;3.00;1.50;;;;;;;;;;5049862;28;20383;-64
2023/03/29 09:51:51;;;;;;;3.27;1.70;;;;;;;;;;5051720;28;20041;-64
2023/03/29 09:54:17;;;;;;;1.85;1.52;;;;;;;;;;5052683;28;20301;-65
2023/03/29 09:56:44;;;;;;;8.38;1.60;;;;;;;;;;5049077;28;20029;-63
2023/03/29 09:59:11;;;;;;;2.63;1.40;;;;;;;;;;5048905;28;20036;-64
2023/03/29 10:01:40;;;;;;;2.47;1.40;;;;;;;;;;5048654;28;20018;-64
2023/03/29 10:04:07;;;;;;;5.70;1.65;;;;;;;;;;5050714;28;20036;-65
2023/03/29 10:06:35;;;;;;;5.15;1.73;;;;;;;;;;5051256;28;20029;-65
2023/03/29 10:09:03;;;;;;;5.90;1.50;;;;;;;;;;5051343;28;20028;-64
2023/03/29 10:11:31;;;;;;;3.47;1.50;;;;;;;;;;5050959;28;20504;-65
2023/03/29 10:14:06;;;;;;;2.38;1.40;;;;;;;;;;5051347;28;20021;-64
2023/03/29 10:16:46;;;;;;;1.42;1.20;;;;;;;;;;5051156;28;20036;-64
2023/03/29 10:19:15;;;;;;;6.22;1.35;;;;;;;;;;5031232;28;20028;-64
2023/03/29 10:21:41;;;;;;;6.95;1.70;;;;;;;;;;5037426;28;20031;-64
2023/03/29 10:24:09;;;;;;;3.10;1.20;;;;;;;;;;5050685;28;20032;-64
2023/03/29 10:26:37;;;;;;;5.45;1.52;;;;;;;;;;5050680;28;20468;-65
2023/03/29 10:29:06;;;;;;;4.55;1.40;;;;;;;;;;5050652;28;20045;-64
2023/03/29 10:31:32;;;;;;;5.25;1.60;;;;;;;;;;5050684;28;20036;-64
2023/03/29 10:34:03;;;;;;;3.95;1.13;;;;;;;;;;5051009;28;20028;-64
2023/03/29 10:36:30;;;;;;;2.72;1.30;;;;;;;;;;5050468;28;20033;-64
2023/03/29 10:38:58;;;;;;;4.35;1.30;;;;;;;;;;5050747;28;20021;-62
2023/03/29 10:41:26;;;;;;;2.17;1.40;;;;;;;;;;5050841;28;20081;-63
2023/03/29 10:43:53;;;;;;;2.42;1.45;;;;;;;;;;5050840;28;20036;-62
2023/03/29 10:46:26;;;;;;;3.03;1.60;;;;;;;;;;5050575;28;20025;-63
2023/03/29 10:48:58;;;;;;;3.10;1.60;;;;;;;;;;5050717;28;20021;-64
2023/03/29 10:51:26;;;;;;;4.63;1.48;;;;;;;;;;5048422;28;20050;-63
2023/03/29 10:53:52;;;;;;;3.72;1.60;;;;;;;;;;5050254;28;20478;-62
2023/03/29 10:56:19;;;;;;;5.60;1.50;;;;;;;;;;5050246;28;20618;-64
2023/03/29 10:58:54;;;;;;;2.13;0.95;;;;;;;;;;5049955;28;20037;-63
2023/03/29 11:01:26;;;;;;;4.75;1.50;;;;;;;;;;5050108;28;20029;-62
2023/03/29 11:04:01;;;;;;;1.90;1.50;;;;;;;;;;5050113;28;20032;-63
2023/03/29 11:06:39;;;;;;;2.97;1.30;;;;;;;;;;5050126;28;20032;-63
2023/03/29 11:09:13;;;;;;;3.45;1.55;;;;;;;;;;5067621;28;20029;-63
2023/03/29 11:11:51;;;;;;;3.13;1.50;;;;;;;;;;5070327;28;20036;-62
2023/03/29 11:14:17;;;;;;;4.72;1.40;;;;;;;;;;5069714;28;20024;-63
2023/03/29 11:16:52;;;;;;;5.25;1.50;;;;;;;;;;5065374;28;20405;-62
2023/03/29 11:19:19;;;;;;;3.13;1.60;;;;;;;;;;5050090;28;20021;-62
2023/03/29 11:21:45;;;;;;;3.83;1.70;;;;;;;;;;5049854;28;20021;-63
2023/03/29 11:24:30;;;;;;;2.92;1.23;;;;;;;;;;5049875;28;20389;-62
2023/03/29 11:26:57;;;;;;;2.67;1.40;;;;;;;;;;5048686;28;20052;-62
2023/03/29 11:29:33;;;;;;;4.65;1.70;;;;;;;;;;5050318;28;20067;-63
2023/03/29 11:32:20;;;;;;;2.78;1.60;;;;;;;;;;5050312;28;20052;-63
2023/03/29 11:35:02;;;;;;;2.58;1.50;;;;;;;;;;5050281;28;20037;-64
2023/03/29 11:37:52;;;;;;;6.43;1.90;;;;;;;;;;5056307;28;20471;-63
2023/03/29 11:40:19;;;;;;;2.90;1.65;;;;;;;;;;5068504;28;20678;-63
2023/03/29 11:42:48;;;;;;;2.58;1.50;;;;;;;;;;5073509;28;20024;-63
2023/03/29 11:45:18;;;;;;;3.65;1.80;;;;;;;;;;5073565;28;20526;-63
2023/03/29 11:47:45;;;;;;;2.97;1.50;;;;;;;;;;5073115;28;20013;-63
2023/03/29 11:50:35;;;;;;;2.47;1.45;;;;;;;;;;5073376;28;20028;-63
2023/03/29 11:53:01;;;;;;;;;;;;;;;;;;5073482;28;20387;-62
2023/03/29 11:55:29;;;;;;;6.05;1.70;;;;;;;;;;5073768;28;19961;-64
2023/03/29 11:57:59;;;;;;;7.43;1.92;;;;;;;;;;5073299;28;20396;-64
2023/03/29 12:00:41;;;;;;;6.63;1.83;;;;;;;;;;5057832;28;20473;-63
2023/03/29 12:03:10;;;;;;;4.75;1.80;;;;;;;;;;5053445;28;20032;-63
2023/03/29 12:05:41;;;;;;;6.60;1.88;;;;;;;;;;5053136;28;20029;-63
2023/03/29 12:08:13;;;;;;;14.77;2.38;;;;;;;;;;5053314;28;20051;-63
2023/03/29 12:10:42;;;;;;;6.47;1.90;;;;;;;;;;5053401;28;20043;-62
2023/03/29 12:13:16;;;;;;;7.45;1.90;;;;;;;;;;5053300;28;20021;-63
2023/03/29 12:16:06;;;;;;;7.15;2.08;;;;;;;;;;5053039;28;20017;-63
2023/03/29 12:18:36;;;;;;;4.53;1.80;;;;;;;;;;5011105;28;20036;-64
2023/03/29 12:21:04;;;;;;;6.28;2.25;;;;;;;;;;5011132;28;20053;-64
2023/03/29 12:23:31;;;;;;;5.07;1.70;;;;;;;;;;5010990;28;20048;-64
2023/03/29 12:26:09;;;;;;;8.10;1.70;;;;;;;;;;5011107;28;20132;-64
2023/03/29 12:28:50;;;;;;;5.50;2.00;;;;;;;;;;5010884;28;20046;-64
2023/03/29 12:31:23;;;;;;;6.90;1.80;;;;;;;;;;5011054;28;20045;-64
2023/03/29 12:33:58;;;;;;;9.48;2.10;;;;;;;;;;5011007;28;20075;-63
2023/03/29 12:36:40;;;;;;;6.05;2.15;;;;;;;;;;5011263;28;20041;-63
2023/03/29 12:39:11;;;;;;;7.13;1.98;;;;;;;;;;5010952;28;20474;-63
2023/03/29 12:41:40;;;;;;;5.45;1.83;;;;;;;;;;5011155;28;20022;-64
2023/03/29 12:44:06;;;;;;;5.90;2.10;;;;;;;;;;5010917;28;20034;-63
2023/03/29 12:46:34;;;;;;;5.88;1.92;;;;;;;;;;5010062;28;20030;-63
2023/03/29 12:49:06;;;;;;;5.22;2.00;;;;;;;;;;5010665;28;20034;-63
2023/03/29 12:51:34;;;;;;;5.13;2.35;;;;;;;;;;5010445;28;20072;-64
2023/03/29 12:54:06;;;;;;;8.07;1.80;;;;;;;;;;5010707;28;20502;-64
2023/03/29 12:56:39;;;;;;;4.43;1.73;;;;;;;;;;5049130;28;20063;-64
2023/03/29 12:59:06;;;;;;;7.38;2.10;;;;;;;;;;5052480;28;20511;-64
2023/03/29 13:01:33;;;;;;;5.85;2.00;;;;;;;;;;5052259;28;20043;-63
2023/03/29 13:04:00;;;;;;;5.57;1.85;;;;;;;;;;5052114;28;20021;-63
2023/03/29 13:06:26;;;;;;;5.68;1.63;;;;;;;;;;5051143;28;20027;-63
2023/03/29 13:09:21;;;;;;;9.82;1.90;;;;;;;;;;5052043;28;20029;-63
2023/03/29 13:11:55;;;;;;;12.05;1.95;;;;;;;;;;5050610;28;20032;-63
2023/03/29 13:14:25;;;;;;;6.95;1.90;;;;;;;;;;5051568;28;20037;-62
2023/03/29 13:16:51;;;;;;;8.73;2.03;;;;;;;;;;5051227;28;20047;-63
2023/03/29 13:19:33;;;;;;;10.52;2.20;;;;;;;;;;5050612;28;20496;-63
2023/03/29 13:22:02;;;;;;;8.88;1.73;;;;;;;;;;5051043;28;20047;-63
2023/03/29 13:24:46;;;;;;;7.32;2.25;;;;;;;;;;5051197;28;20470;-63
2023/03/29 13:27:13;;;;;;;5.68;1.77;;;;;;;;;;5047982;28;20029;-63
2023/03/29 13:30:03;;;;;;;6.88;2.05;;;;;;;;;;5051340;28;20443;-63
2023/03/29 13:32:29;;;;;;;12.95;2.17;;;;;;;;;;5051130;28;20033;-63
2023/03/29 13:34:59;;;;;;;7.38;2.10;;;;;;;;;;5050616;28;20033;-63
2023/03/29 13:37:40;;;;;;;11.38;2.05;;;;;;;;;;5051383;28;20065;-62
2023/03/29 13:40:25;;;;;;;7.13;1.70;;;;;;;;;;5050985;28;20035;-62
2023/03/29 13:42:59;;;;;;;10.15;2.10;;;;;;;;;;5051195;28;20033;-62
2023/03/29 13:45:29;;;;;;;7.53;1.90;;;;;;;;;;5050248;28;20486;-62
2023/03/29 13:48:04;;;;;;;11.88;2.42;;;;;;;;;;5031536;28;20036;-62
2023/03/29 13:50:38;;;;;;;7.25;1.80;;;;;;;;;;5031801;28;20033;-62
2023/03/29 13:53:09;;;;;;;12.10;1.98;;;;;;;;;;5031571;28;20375;-62
2023/03/29 13:55:56;;;;;;;6.65;1.88;;;;;;;;;;5046070;28;20035;-63
2023/03/29 13:58:41;;;;;;;8.43;2.17;;;;;;;;;;5050459;28;20021;-63
2023/03/29 14:01:11;;;;;;;14.60;2.53;;;;;;;;;;5030723;28;20036;-62
2023/03/29 14:03:43;;;;;;;6.00;2.07;;;;;;;;;;5030587;28;20044;-62
2023/03/29 14:06:10;;;;;;;7.88;1.80;;;;;;;;;;5050571;28;20017;-63
2023/03/29 14:08:39;;;;;;;8.93;1.85;;;;;;;;;;5051675;28;20021;-62
2023/03/29 14:11:06;;;;;;;11.10;2.20;;;;;;;;;;5051543;28;20035;-62
2023/03/29 14:13:33;;;;;;;14.75;2.33;;;;;;;;;;5051246;28;20025;-63
2023/03/29 14:16:03;;;;;;;5.80;1.70;;;;;;;;;;5050179;28;20397;-63
2023/03/29 14:18:30;;;;;;;;;;;;;;;;;;5050569;28;20478;-62
2023/03/29 14:20:56;;;;;;;9.75;2.10;;;;;;;;;;5051244;28;20330;-62
2023/03/29 14:23:24;;;;;;;9.98;2.25;;;;;;;;;;5051326;28;20021;-62
2023/03/29 14:25:50;;;;;;;9.25;1.90;;;;;;;;;;5050936;28;20035;-62
2023/03/29 14:28:20;;;;;;;10.20;2.15;;;;;;;;;;5050093;28;20025;-62
2023/03/29 14:30:48;;;;;;;8.83;2.20;;;;;;;;;;5051099;28;20048;-62
2023/03/29 14:33:25;;;;;;;7.38;2.42;;;;;;;;;;5050876;28;20024;-62
2023/03/29 14:35:51;;;;;;;7.28;2.50;;;;;;;;;;5050736;28;20027;-62
2023/03/29 14:38:18;;;;;;;6.82;2.53;;;;;;;;;;5051156;28;20024;-62
2023/03/29 14:40:44;;;;;;;8.13;2.33;;;;;;;;;;5050908;28;20024;-62
2023/03/29 14:43:14;;;;;;;8.73;2.63;;;;;;;;;;5050562;28;20035;-60
2023/03/29 14:45:40;;;;;;;10.82;2.33;;;;;;;;;;5050633;28;20029;-62
2023/03/29 14:48:06;;;;;;;9.73;2.30;;;;;;;;;;5050777;28;20066;-62
2023/03/29 14:50:33;;;;;;;8.18;2.35;;;;;;;;;;5051259;28;20025;-62
2023/03/29 14:53:01;;;;;;;12.30;2.80;;;;;;;;;;5050420;28;20037;-63
2023/03/29 14:55:27;;;;;;;8.43;2.17;;;;;;;;;;5050711;28;20474;-62
2023/03/29 14:57:54;;;;;;;11.00;2.33;;;;;;;;;;5049963;28;20021;-63
2023/03/29 15:00:38;;;;;;;9.38;2.10;;;;;;;;;;5050365;28;20481;-62